createdAt,value
2022-12-20T00:02:28.175Z,0.30
2022-12-20T00:04:58.226Z,0.60
2022-12-20T00:07:28.088Z,0.60
2022-12-20T00:09:57.962Z,0.60
2022-12-20T00:12:27.923Z,0.60
2022-12-20T00:15:00.374Z,0.70
2022-12-20T00:17:30.393Z,0.70
2022-12-20T00:20:00.294Z,0.60
2022-12-20T00:22:30.204Z,0.90
2022-12-20T00:25:00.109Z,1.00
2022-12-20T00:27:30.033Z,1.10
2022-12-20T00:30:02.569Z,1.00
2022-12-20T00:32:32.535Z,0.50
2022-12-20T00:35:02.448Z,0.20
2022-12-20T00:37:32.293Z,0.00
2022-12-20T00:40:02.278Z,-0.20
2022-12-20T00:42:32.160Z,-0.20
2022-12-20T00:45:05.557Z,-0.10
2022-12-20T00:47:35.480Z,-0.20
2022-12-20T00:50:05.337Z,-0.20
2022-12-20T00:52:35.189Z,-0.10
2022-12-20T00:55:07.194Z,0.00
2022-12-20T00:57:37.031Z,0.20
2022-12-20T01:00:11.714Z,0.30
2022-12-20T01:02:41.869Z,0.30
2022-12-20T01:05:12.319Z,0.30
2022-12-20T01:07:42.231Z,0.20
2022-12-20T01:10:13.758Z,0.20
2022-12-20T01:12:43.792Z,0.20
2022-12-20T01:15:17.440Z,0.30
2022-12-20T01:17:47.485Z,0.20
2022-12-20T01:20:17.591Z,0.20
2022-12-20T01:22:47.869Z,0.10
2022-12-20T01:25:18.069Z,0.10
2022-12-20T01:27:48.101Z,0.10
2022-12-20T01:30:20.912Z,0.20
2022-12-20T01:32:50.910Z,0.20
2022-12-20T01:35:21.138Z,0.20
2022-12-20T01:37:51.446Z,0.20
2022-12-20T01:40:21.599Z,0.20
2022-12-20T01:42:51.463Z,0.20
2022-12-20T01:45:30.038Z,0.20
2022-12-20T01:48:00.803Z,0.30
2022-12-20T01:50:32.497Z,0.50
2022-12-20T01:53:04.369Z,0.50
2022-12-20T01:55:35.796Z,0.40
2022-12-20T01:58:08.901Z,0.40
2022-12-20T02:00:41.687Z,0.50
2022-12-20T02:03:13.592Z,0.40
2022-12-20T02:05:47.061Z,0.40
2022-12-20T02:08:20.831Z,0.30
2022-12-20T02:11:03.500Z,0.30
2022-12-20T02:13:40.994Z,0.20
2022-12-20T02:16:18.339Z,0.40
2022-12-20T02:18:52.560Z,0.70
2022-12-20T02:21:29.927Z,0.70
2022-12-20T02:24:32.908Z,0.80
2022-12-20T02:27:29.073Z,1.00
2022-12-20T02:30:07.157Z,1.10
2022-12-20T02:32:40.442Z,1.20
2022-12-20T02:35:12.807Z,1.20
2022-12-20T02:37:51.202Z,1.20
2022-12-20T02:40:26.419Z,1.20
2022-12-20T02:42:59.022Z,1.00
2022-12-20T02:45:34.133Z,0.90
2022-12-20T02:48:06.730Z,0.70
2022-12-20T02:50:40.336Z,0.80
2022-12-20T02:53:11.494Z,0.70
2022-12-20T02:55:45.140Z,0.90
2022-12-20T02:58:19.644Z,1.20
2022-12-20T03:00:54.068Z,1.20
2022-12-20T03:03:27.730Z,1.30
2022-12-20T03:05:58.656Z,1.30
2022-12-20T03:08:29.323Z,1.40
2022-12-20T03:10:59.717Z,1.50
2022-12-20T03:13:31.103Z,1.60
2022-12-20T03:16:10.835Z,1.70
2022-12-20T03:18:41.694Z,1.70
2022-12-20T03:21:11.655Z,1.70
2022-12-20T03:23:41.599Z,1.70
2022-12-20T03:26:12.193Z,1.90
2022-12-20T03:28:48.863Z,1.90
2022-12-20T03:31:25.500Z,2.10
2022-12-20T03:33:58.120Z,2.90
2022-12-20T03:36:28.166Z,240.60
2022-12-20T03:39:02.077Z,240.60
2022-12-20T03:41:35.180Z,240.60
2022-12-20T03:44:05.561Z,240.60
2022-12-20T03:46:38.400Z,240.60
2022-12-20T03:49:08.400Z,240.60
2022-12-20T03:51:45.608Z,240.60
2022-12-20T03:54:15.608Z,3.70
2022-12-20T03:57:02.788Z,240.60
2022-12-20T03:59:33.782Z,240.60
2022-12-20T04:02:06.818Z,240.60
2022-12-20T04:04:37.220Z,240.60
2022-12-20T04:07:07.135Z,240.60
2022-12-20T04:09:39.705Z,3.90
2022-12-20T04:12:14.589Z,3.80
2022-12-20T04:14:44.583Z,3.80
2022-12-20T04:17:18.348Z,3.80
2022-12-20T04:19:49.668Z,3.70
2022-12-20T04:22:20.785Z,3.70
2022-12-20T04:25:04.031Z,3.70
2022-12-20T04:27:39.000Z,3.70
2022-12-20T04:30:12.527Z,3.80
2022-12-20T04:32:45.201Z,3.70
2022-12-20T04:35:15.189Z,3.60
2022-12-20T04:37:45.968Z,3.60
2022-12-20T04:40:17.345Z,3.40
2022-12-20T04:42:54.219Z,3.50
2022-12-20T04:45:24.391Z,3.50
2022-12-20T04:47:58.260Z,3.50
2022-12-20T04:50:36.963Z,3.30
2022-12-20T04:53:19.542Z,3.50
2022-12-20T04:55:50.041Z,3.40
2022-12-20T04:58:20.192Z,3.30
2022-12-20T05:00:52.409Z,3.50
2022-12-20T05:03:31.480Z,3.50
2022-12-20T05:06:01.570Z,3.40
2022-12-20T05:08:31.779Z,3.40
2022-12-20T05:11:01.930Z,3.50
2022-12-20T05:13:32.360Z,3.50
2022-12-20T05:16:04.198Z,3.50
2022-12-20T05:18:46.454Z,3.60
2022-12-20T05:21:31.639Z,3.70
2022-12-20T05:24:14.277Z,4.10
2022-12-20T05:27:00.537Z,4.30
2022-12-20T05:29:30.683Z,240.60
2022-12-20T05:32:00.909Z,240.60
2022-12-20T05:34:34.263Z,4.30
2022-12-20T05:37:04.352Z,4.40
2022-12-20T05:39:37.069Z,4.10
2022-12-20T05:42:13.321Z,3.70
2022-12-20T05:44:43.413Z,3.30
2022-12-20T05:47:13.673Z,3.00
2022-12-20T05:49:47.346Z,2.80
2022-12-20T05:52:17.462Z,2.70
2022-12-20T05:54:47.651Z,2.50
2022-12-20T05:57:19.827Z,2.10
2022-12-20T05:59:49.976Z,1.90
2022-12-20T06:02:23.229Z,1.80
2022-12-20T06:05:02.932Z,1.50
2022-12-20T06:07:33.867Z,1.40
2022-12-20T06:10:03.781Z,1.50
2022-12-20T06:12:50.758Z,1.70
2022-12-20T06:15:21.298Z,1.80
2022-12-20T06:17:51.446Z,1.90
2022-12-20T06:20:24.340Z,1.90
2022-12-20T06:22:55.522Z,1.90
2022-12-20T06:25:25.824Z,1.90
2022-12-20T06:27:56.220Z,1.70
2022-12-20T06:30:33.383Z,1.10
2022-12-20T06:33:11.009Z,0.90
2022-12-20T06:35:43.830Z,1.20
2022-12-20T06:38:15.269Z,1.50
2022-12-20T06:40:45.771Z,2.10
2022-12-20T06:43:15.941Z,2.40
2022-12-20T06:45:46.078Z,2.00
2022-12-20T06:48:16.118Z,1.70
2022-12-20T06:50:55.852Z,1.70
2022-12-20T06:53:27.333Z,2.00
2022-12-20T06:55:57.277Z,2.20
2022-12-20T06:58:27.444Z,2.10
2022-12-20T07:00:57.848Z,1.90
2022-12-20T07:03:28.417Z,1.40
2022-12-20T07:06:01.402Z,1.10
2022-12-20T07:08:31.649Z,0.50
2022-12-20T07:11:06.915Z,0.40
2022-12-20T07:13:37.325Z,0.40
2022-12-20T07:16:08.619Z,0.30
2022-12-20T07:18:38.627Z,0.40
2022-12-20T07:21:11.402Z,0.40
2022-12-20T07:23:41.427Z,0.60
2022-12-20T07:26:13.208Z,0.60
2022-12-20T07:28:44.124Z,0.80
2022-12-20T07:31:14.141Z,1.00
2022-12-20T07:33:44.163Z,1.60
2022-12-20T07:36:17.608Z,1.80
2022-12-20T07:38:47.628Z,1.70
2022-12-20T07:41:19.636Z,1.50
2022-12-20T07:43:49.783Z,1.40
2022-12-20T07:46:20.271Z,1.30
2022-12-20T07:48:50.338Z,1.10
2022-12-20T07:51:26.960Z,1.00
2022-12-20T07:53:59.381Z,0.80
2022-12-20T07:56:29.937Z,0.70
2022-12-20T07:59:01.887Z,0.60
2022-12-20T08:01:33.194Z,0.70
2022-12-20T08:04:06.495Z,0.70
2022-12-20T08:06:40.636Z,0.80
2022-12-20T08:09:12.871Z,0.80
2022-12-20T08:11:44.585Z,0.70
2022-12-20T08:14:14.843Z,0.70
2022-12-20T08:16:44.814Z,0.80
2022-12-20T08:19:14.764Z,1.00
2022-12-20T08:21:47.316Z,0.90
2022-12-20T08:24:17.323Z,0.70
2022-12-20T08:26:47.237Z,0.70
2022-12-20T08:29:17.587Z,0.80
2022-12-20T08:31:50.269Z,0.90
2022-12-20T08:34:21.439Z,1.00
2022-12-20T08:36:53.944Z,1.20
2022-12-20T08:39:24.008Z,1.30
2022-12-20T08:41:53.880Z,1.20
2022-12-20T08:44:23.821Z,1.30
2022-12-20T08:46:54.526Z,1.50
2022-12-20T08:49:24.700Z,1.30
2022-12-20T08:51:57.315Z,1.30
2022-12-20T08:54:27.216Z,1.20
2022-12-20T08:57:00.222Z,1.00
2022-12-20T08:59:30.121Z,1.00
2022-12-20T09:02:00.106Z,1.00
2022-12-20T09:04:30.214Z,1.00
2022-12-20T09:07:02.925Z,1.10
2022-12-20T09:09:33.070Z,1.10
2022-12-20T09:12:03.152Z,1.10
2022-12-20T09:14:33.119Z,1.00
2022-12-20T09:17:03.015Z,1.10
2022-12-20T09:19:33.156Z,1.20
2022-12-20T09:22:05.817Z,1.20
2022-12-20T09:24:35.927Z,1.40
2022-12-20T09:27:05.907Z,1.50
2022-12-20T09:29:36.252Z,1.50
2022-12-20T09:32:06.333Z,1.40
2022-12-20T09:34:36.419Z,1.40
2022-12-20T09:37:09.463Z,1.50
2022-12-20T09:39:39.632Z,1.70
2022-12-20T09:42:11.695Z,1.80
2022-12-20T09:44:43.455Z,1.80
2022-12-20T09:47:18.750Z,1.70
2022-12-20T09:49:50.383Z,1.60
2022-12-20T09:52:34.851Z,1.70
2022-12-20T09:55:14.851Z,1.80
2022-12-20T09:57:55.521Z,2.00
2022-12-20T10:00:26.100Z,1.80
2022-12-20T10:03:04.265Z,1.80
2022-12-20T10:05:42.135Z,1.70
2022-12-20T10:08:20.375Z,1.60
2022-12-20T10:11:00.724Z,1.30
2022-12-20T10:13:44.360Z,1.30
2022-12-20T10:16:38.813Z,1.20
2022-12-20T10:19:19.421Z,1.20
2022-12-20T10:21:56.781Z,1.40
2022-12-20T10:24:33.588Z,1.50
2022-12-20T10:27:10.508Z,1.80
2022-12-20T10:29:41.000Z,1.80
2022-12-20T10:32:15.934Z,1.80
2022-12-20T10:34:54.905Z,1.80
2022-12-20T10:37:25.212Z,1.70
2022-12-20T10:40:01.977Z,1.70
2022-12-20T10:42:40.936Z,1.60
2022-12-20T10:45:35.827Z,1.70
2022-12-20T10:48:08.773Z,1.80
2022-12-20T10:50:38.731Z,1.70
2022-12-20T10:53:24.939Z,1.70
2022-12-20T10:56:08.049Z,1.70
2022-12-20T10:58:39.787Z,1.70
2022-12-20T11:01:15.850Z,1.70
2022-12-20T11:03:58.115Z,1.80
2022-12-20T11:06:31.788Z,1.70
2022-12-20T11:09:26.276Z,1.80
2022-12-20T11:12:08.357Z,1.70
2022-12-20T11:14:40.546Z,1.60
2022-12-20T11:17:24.403Z,1.60
2022-12-20T11:20:16.388Z,1.60
2022-12-20T11:22:54.155Z,1.60
2022-12-20T11:25:35.297Z,1.60
2022-12-20T11:28:27.857Z,1.40
2022-12-20T11:31:07.579Z,1.40
2022-12-20T11:33:46.210Z,1.50
2022-12-20T11:36:22.069Z,1.60
2022-12-20T11:38:56.074Z,1.60
2022-12-20T11:41:32.908Z,1.60
2022-12-20T11:44:28.069Z,1.70
2022-12-20T11:47:11.171Z,1.70
2022-12-20T11:49:53.409Z,1.70
2022-12-20T11:52:40.424Z,1.70
2022-12-20T11:55:21.462Z,1.70
2022-12-20T12:00:56.394Z,1.70
2022-12-20T12:03:31.906Z,1.70
2022-12-20T12:06:04.030Z,1.80
2022-12-20T12:08:41.770Z,1.80
2022-12-20T12:11:55.711Z,1.90
2022-12-20T12:14:08.539Z,2.10
2022-12-20T12:16:45.212Z,2.10
2022-12-20T12:19:16.289Z,2.00
2022-12-20T12:21:51.501Z,2.10
2022-12-20T12:24:26.866Z,2.10
2022-12-20T12:26:57.361Z,2.00
2022-12-20T12:29:27.886Z,2.00
2022-12-20T12:32:03.912Z,2.10
2022-12-20T12:34:45.441Z,2.20
2022-12-20T12:37:35.217Z,2.10
2022-12-20T12:40:25.194Z,2.10
2022-12-20T12:43:33.625Z,1.80
2022-12-20T12:46:07.200Z,1.80
2022-12-20T12:48:46.219Z,1.80
2022-12-20T12:51:17.637Z,2.00
2022-12-20T12:53:51.608Z,2.00
2022-12-20T12:56:44.889Z,2.00
2022-12-20T12:59:51.976Z,1.90
2022-12-20T13:02:38.093Z,1.80
2022-12-20T13:05:38.567Z,1.70
2022-12-20T13:08:19.376Z,1.50
2022-12-20T13:11:04.138Z,1.50
2022-12-20T13:13:35.424Z,1.50
2022-12-20T13:17:09.939Z,1.40
2022-12-20T13:19:33.030Z,1.40
2022-12-20T13:22:23.059Z,1.50
2022-12-20T13:24:58.278Z,1.50
2022-12-20T13:27:34.089Z,1.60
2022-12-20T13:30:29.135Z,1.50
2022-12-20T13:33:21.531Z,1.50
2022-12-20T13:36:08.262Z,1.50
2022-12-20T13:38:56.655Z,1.60
2022-12-20T13:41:35.801Z,1.60
2022-12-20T13:44:21.116Z,1.60
2022-12-20T13:46:54.515Z,1.70
2022-12-20T13:49:28.449Z,1.80
2022-12-20T13:52:27.090Z,1.80
2022-12-20T13:55:01.871Z,1.70
2022-12-20T13:57:34.773Z,1.60
2022-12-20T14:00:09.501Z,1.50
2022-12-20T14:02:44.068Z,1.50
2022-12-20T14:05:20.883Z,1.40
2022-12-20T14:07:55.138Z,1.40
2022-12-20T14:10:30.441Z,1.60
2022-12-20T14:13:00.947Z,1.60
2022-12-20T14:15:32.846Z,1.50
2022-12-20T14:18:08.911Z,1.40
2022-12-20T14:20:40.966Z,1.30
2022-12-20T14:23:15.842Z,1.30
2022-12-20T14:25:50.844Z,1.10
2022-12-20T14:28:30.858Z,1.10
2022-12-20T14:31:02.142Z,1.00
2022-12-20T14:33:35.097Z,1.00
2022-12-20T14:36:19.433Z,1.00
2022-12-20T14:38:51.195Z,1.00
2022-12-20T14:41:42.391Z,1.00
2022-12-20T14:44:19.255Z,1.00
2022-12-20T14:46:53.735Z,0.90
2022-12-20T14:49:27.207Z,0.80
2022-12-20T14:52:10.361Z,0.80
2022-12-20T14:57:48.837Z,0.80
2022-12-20T15:00:24.955Z,0.80
2022-12-20T15:03:02.773Z,0.80
2022-12-20T15:05:48.850Z,0.70
2022-12-20T15:08:21.564Z,0.60
2022-12-20T15:10:56.916Z,0.60
2022-12-20T15:13:32.038Z,0.70
2022-12-20T15:16:04.700Z,0.60
2022-12-20T15:18:35.437Z,0.50
2022-12-20T15:21:08.671Z,0.50
2022-12-20T15:23:39.006Z,0.60
2022-12-20T15:26:09.139Z,0.50
2022-12-20T15:28:41.713Z,0.60
2022-12-20T15:31:14.328Z,0.60
2022-12-20T15:33:45.565Z,0.50
2022-12-20T15:36:17.020Z,0.40
2022-12-20T15:41:37.980Z,0.40
2022-12-20T15:44:15.547Z,0.30
2022-12-20T15:46:45.713Z,0.30
2022-12-20T15:49:19.773Z,0.30
2022-12-20T15:51:51.247Z,0.20
2022-12-20T15:54:27.646Z,0.30
2022-12-20T15:56:58.733Z,0.30
2022-12-20T16:00:02.725Z,0.30
2022-12-20T16:02:24.896Z,0.40
2022-12-20T16:04:55.790Z,0.50
2022-12-20T16:07:26.030Z,0.60
2022-12-20T16:09:56.012Z,0.50
2022-12-20T16:12:28.911Z,0.50
2022-12-20T16:27:51.233Z,1.00
2022-12-20T16:30:22.494Z,1.00
2022-12-20T16:32:52.639Z,1.00
2022-12-20T16:35:28.122Z,1.00
2022-12-20T16:37:58.865Z,0.90
2022-12-20T16:40:30.677Z,0.80
2022-12-20T16:43:03.572Z,0.70
2022-12-20T16:45:34.870Z,0.70
2022-12-20T16:48:04.890Z,0.70
2022-12-20T16:50:36.081Z,0.70
2022-12-20T16:53:06.112Z,0.60
2022-12-20T16:55:39.981Z,0.60
2022-12-20T16:58:13.295Z,0.50
2022-12-20T17:00:43.477Z,0.40
2022-12-20T17:03:13.754Z,0.40
2022-12-20T17:05:43.797Z,0.40
2022-12-20T17:10:58.877Z,0.40
2022-12-20T17:13:31.887Z,0.80
2022-12-20T17:16:01.879Z,0.70
2022-12-20T17:18:32.013Z,0.80
2022-12-20T17:21:04.118Z,1.00
2022-12-20T17:23:43.889Z,1.20
2022-12-20T17:26:16.100Z,1.30
2022-12-20T17:28:48.973Z,1.40
2022-12-20T17:31:26.110Z,1.30
2022-12-20T17:33:56.608Z,1.30
2022-12-20T17:36:27.474Z,1.20
2022-12-20T17:38:58.778Z,1.10
2022-12-20T17:41:30.650Z,1.00
2022-12-20T17:44:04.847Z,1.00
2022-12-20T17:46:35.270Z,1.00
2022-12-20T17:49:05.314Z,1.00
2022-12-20T17:51:35.346Z,1.00
2022-12-20T17:54:05.381Z,1.00
2022-12-20T17:56:36.917Z,1.00
2022-12-20T17:59:09.551Z,1.10
2022-12-20T18:01:40.721Z,1.00
2022-12-20T18:04:13.434Z,0.90
2022-12-20T18:06:45.120Z,1.00
2022-12-20T18:09:16.765Z,1.00
2022-12-20T18:11:46.801Z,1.10
2022-12-20T18:14:19.521Z,1.10
2022-12-20T18:16:49.980Z,1.20
2022-12-20T18:19:21.471Z,1.10
2022-12-20T18:21:51.559Z,1.20
2022-12-20T18:24:22.020Z,1.20
2022-12-20T18:26:52.039Z,1.20
2022-12-20T18:29:24.686Z,1.10
2022-12-20T18:31:55.662Z,1.00
2022-12-20T18:34:25.937Z,1.00
2022-12-20T18:36:55.896Z,0.90
2022-12-20T18:39:25.895Z,0.70
2022-12-20T18:41:56.279Z,0.70
2022-12-20T18:44:29.222Z,0.80
2022-12-20T18:46:59.235Z,0.80
2022-12-20T18:49:29.252Z,0.90
2022-12-20T18:51:59.315Z,1.00
2022-12-20T18:54:30.492Z,0.90
2022-12-20T18:57:00.639Z,0.90
2022-12-20T18:59:33.309Z,1.00
2022-12-20T19:02:04.007Z,1.10
2022-12-20T19:04:34.367Z,1.10
2022-12-20T19:07:04.427Z,1.10
2022-12-20T19:09:34.471Z,1.10
2022-12-20T19:12:04.468Z,1.10
2022-12-20T19:14:37.168Z,1.00
2022-12-20T19:17:07.811Z,0.80
2022-12-20T19:19:37.859Z,0.70
2022-12-20T19:22:07.874Z,0.80
2022-12-20T19:24:37.889Z,0.60
2022-12-20T19:27:09.527Z,0.50
2022-12-20T19:29:42.216Z,0.50
2022-12-20T19:32:12.187Z,0.50
2022-12-20T19:34:42.512Z,0.60
2022-12-20T19:37:13.235Z,0.70
2022-12-20T19:39:43.491Z,0.70
2022-12-20T19:42:29.897Z,0.90
2022-12-20T19:45:02.507Z,1.00
2022-12-20T19:47:33.729Z,1.00
2022-12-20T19:50:06.049Z,1.00
2022-12-20T19:52:36.789Z,1.00
2022-12-20T19:55:07.319Z,1.30
2022-12-20T19:57:38.140Z,1.30
2022-12-20T20:00:12.663Z,0.90
2022-12-20T20:02:42.870Z,0.80
2022-12-20T20:05:15.446Z,0.90
2022-12-20T20:07:46.265Z,0.90
2022-12-20T20:10:16.309Z,1.10
2022-12-20T20:12:46.294Z,1.20
2022-12-20T20:15:19.054Z,1.20
2022-12-20T20:17:49.122Z,1.10
2022-12-20T20:20:19.420Z,1.10
2022-12-20T20:22:49.424Z,1.10
2022-12-20T20:25:19.563Z,1.10
2022-12-20T20:27:49.605Z,1.30
2022-12-20T20:30:24.699Z,1.30
2022-12-20T20:32:54.757Z,1.20
2022-12-20T20:35:24.829Z,1.00
2022-12-20T20:37:55.506Z,0.90
2022-12-20T20:40:25.685Z,0.90
2022-12-20T20:42:55.912Z,0.80
2022-12-20T20:45:28.904Z,0.70
2022-12-20T20:48:05.511Z,0.70
2022-12-20T20:50:36.743Z,0.70
2022-12-20T20:53:07.214Z,0.70
2022-12-20T20:55:37.234Z,0.70
2022-12-20T20:58:07.311Z,0.70
2022-12-20T21:00:39.973Z,0.60
2022-12-20T21:03:11.454Z,0.60
2022-12-20T21:08:31.696Z,0.50
2022-12-20T21:11:01.958Z,0.60
2022-12-20T21:13:32.043Z,0.50
2022-12-20T21:16:11.376Z,0.40
2022-12-20T21:18:41.504Z,0.40
2022-12-20T21:21:12.735Z,0.40
2022-12-20T21:23:46.147Z,0.50
2022-12-20T21:26:16.340Z,0.50
2022-12-20T21:28:46.655Z,0.50
2022-12-20T21:31:20.593Z,0.50
2022-12-20T21:33:50.615Z,0.60
2022-12-20T21:36:21.759Z,0.70
2022-12-20T21:38:53.061Z,0.80
2022-12-20T21:41:24.295Z,0.80
2022-12-20T21:43:54.617Z,1.00
2022-12-20T21:46:28.025Z,1.10
2022-12-20T21:49:02.138Z,1.00
2022-12-20T21:51:33.123Z,0.90
2022-12-20T21:54:04.800Z,0.90
2022-12-20T21:56:36.281Z,1.00
2022-12-20T21:59:07.542Z,1.00
2022-12-20T22:01:40.342Z,1.10
2022-12-20T22:04:10.533Z,1.00
2022-12-20T22:06:40.850Z,1.10
2022-12-20T22:09:12.551Z,1.00
2022-12-20T22:11:42.852Z,0.90
2022-12-20T22:14:15.091Z,0.80
2022-12-20T22:16:47.781Z,0.80
2022-12-20T22:19:18.065Z,1.00
2022-12-20T22:21:52.350Z,0.80
2022-12-20T22:24:27.253Z,0.80
2022-12-20T22:26:57.317Z,0.80
2022-12-20T22:29:27.356Z,0.90
2022-12-20T22:32:00.137Z,1.00
2022-12-20T22:34:30.395Z,0.90
2022-12-20T22:37:00.608Z,0.90
2022-12-20T22:39:30.545Z,1.00
2022-12-20T22:42:00.658Z,1.00
2022-12-20T22:44:30.668Z,1.10
2022-12-20T22:47:03.285Z,1.20
2022-12-20T22:49:33.293Z,1.10
2022-12-20T22:52:07.710Z,1.10
2022-12-20T22:54:38.086Z,1.00
2022-12-20T22:57:10.493Z,1.00
2022-12-20T22:59:40.511Z,1.00
2022-12-20T23:02:13.332Z,0.90
2022-12-20T23:04:43.600Z,1.00
2022-12-20T23:07:13.595Z,1.00
2022-12-20T23:09:43.618Z,0.90
2022-12-20T23:12:26.192Z,0.80
2022-12-20T23:15:08.565Z,0.90
2022-12-20T23:17:41.292Z,0.80
2022-12-20T23:20:24.899Z,1.00
2022-12-20T23:22:55.457Z,0.90
2022-12-20T23:25:25.605Z,0.80
2022-12-20T23:27:56.114Z,1.10
2022-12-20T23:30:27.246Z,1.30
2022-12-20T23:32:59.949Z,1.30
2022-12-20T23:35:29.964Z,1.20
2022-12-20T23:37:59.887Z,1.30
2022-12-20T23:40:29.901Z,1.20
2022-12-20T23:42:59.872Z,1.40
2022-12-20T23:45:29.944Z,1.50
2022-12-20T23:48:02.549Z,1.60
2022-12-20T23:50:32.770Z,1.30
2022-12-20T23:53:02.866Z,1.10
2022-12-20T23:55:32.843Z,1.00
2022-12-20T23:58:03.253Z,0.80
